Time;durP1;ratioP1;P1;durP2;ratioP2;P2;SDS_P1;SDS_P2;PMS_P1;PMS_P2;Temp;Humidity;BMP_temperature;BMP_pressure;BME280_temperature;BME280_humidity;BME280_pressure;Samples;Min_cycle;Max_cycle;Signal;HPM_P1;HPM_P2
2022/05/05 00:01:22;;;;;;;;;;;;;;;18.76;47.54;101045.44;5079990;28;857;-62
2022/05/05 00:03:48;;;;;;;;;;;;;;;18.42;46.35;101046.09;5080744;28;1412;-61
2022/05/05 00:06:13;;;;;;;;;;;;;;;18.08;44.67;101046.72;5093038;28;1913;-62
2022/05/05 00:08:39;;;;;;;;;;;;;;;17.73;42.95;101040.09;5087505;28;894;-61
2022/05/05 00:16:32;;;;;;;;;;;;;;;17.09;39.68;101047.69;5092782;28;966;-61
2022/05/05 00:18:57;;;;;;;;;;;;;;;17.09;39.88;101047.69;5096890;28;886;-61
2022/05/05 00:21:23;;;;;;;;;;;;;;;17.23;40.82;101049.94;5079269;28;869;-61
2022/05/05 00:23:48;;;;;;;;;;;;;;;17.56;43.42;101056.06;5088244;28;788;-62
2022/05/05 00:26:14;;;;;;;;;;;;;;;17.90;45.32;101050.00;5078707;28;1909;-62
2022/05/05 00:28:39;;;;;;;;;;;;;;;18.15;46.74;101048.38;5079181;28;781;-61
2022/05/05 00:31:05;;;;;;;;;;;;;;;18.46;47.40;101049.94;5079543;28;804;-62
2022/05/05 00:33:30;;;;;;;;;;;;;;;18.69;47.86;101055.09;5079121;28;892;-62
2022/05/05 00:35:56;;;;;;;;;;;;;;;18.72;47.95;101058.13;5083183;28;993;-62
2022/05/05 00:38:21;;;;;;;;;;;;;;;18.52;47.49;101058.19;5089424;28;888;-62
2022/05/05 00:40:47;;;;;;;;;;;;;;;18.29;46.09;101061.28;5098440;28;811;-62
2022/05/05 00:43:12;;;;;;;;;;;;;;;18.07;44.26;101060.75;5098076;28;842;-62
2022/05/05 00:45:38;;;;;;;;;;;;;;;17.77;42.93;101060.47;5096676;28;1902;-62
2022/05/05 00:48:07;;;;;;;;;;;;;;;17.55;41.75;101059.91;5097757;28;856;-61
2022/05/05 00:50:33;;;;;;;;;;;;;;;17.36;40.70;101065.06;5086290;28;1029;-61
2022/05/05 00:52:59;;;;;;;;;;;;;;;17.27;39.98;101064.78;5078866;28;776;-62
2022/05/05 00:55:24;;;;;;;;;;;;;;;17.17;39.48;101062.03;5078544;28;822;-62
2022/05/05 00:57:49;;;;;;;;;;;;;;;17.04;39.29;101066.94;5078440;28;806;-62
2022/05/05 01:00:15;;;;;;;;;;;;;;;17.00;39.53;101068.56;5079724;28;1142;-62
2022/05/05 01:02:40;;;;;;;;;;;;;;;17.10;40.17;101067.78;5079049;28;943;-62
2022/05/05 01:05:06;;;;;;;;;;;;;;;17.21;41.61;101069.44;5086390;28;819;-62
2022/05/05 01:07:31;;;;;;;;;;;;;;;17.40;42.48;101069.78;5078338;28;1913;-62
2022/05/05 01:09:57;;;;;;;;;;;;;;;17.51;43.55;101075.28;5077066;28;992;-62
2022/05/05 01:12:28;;;;;;;;;;;;;;;17.63;44.06;101075.84;5077033;28;853;-62
2022/05/05 01:14:54;;;;;;;;;;;;;;;17.70;44.23;101079.16;5090675;28;1307;-62
2022/05/05 01:17:21;;;;;;;;;;;;;;;17.75;44.56;101067.31;5077273;28;774;-62
2022/05/05 01:19:46;;;;;;;;;;;;;;;17.81;44.88;101077.25;5080269;28;1062;-62
2022/05/05 01:22:12;;;;;;;;;;;;;;;17.92;44.87;101076.19;5077910;28;778;-63
2022/05/05 01:30:06;;;;;;;;;;;;;;;18.00;45.33;101071.22;5077606;28;865;-62
2022/05/05 01:32:32;;;;;;;;;;;;;;;18.02;45.28;101074.50;5078055;28;888;-62
2022/05/05 01:34:57;;;;;;;;;;;;;;;18.12;45.50;101074.53;5080326;28;902;-62
2022/05/05 01:37:22;;;;;;;;;;;;;;;18.16;45.43;101074.78;5097081;28;761;-63
2022/05/05 01:39:48;;;;;;;;;;;;;;;18.16;45.62;101077.53;5097141;28;959;-63
2022/05/05 01:42:13;;;;;;;;;;;;;;;18.17;45.53;101082.75;5081774;28;1388;-63
2022/05/05 01:44:39;;;;;;;;;;;;;;;18.17;45.49;101076.44;5077657;28;904;-63
2022/05/05 01:47:04;;;;;;;;;;;;;;;18.16;45.12;101080.28;5077413;28;1977;-63
2022/05/05 01:49:30;;;;;;;;;;;;;;;18.00;44.02;101073.97;5081050;28;1118;-62
2022/05/05 01:51:55;;;;;;;;;;;;;;;17.82;43.09;101089.06;5077824;28;712;-62
2022/05/05 01:54:21;;;;;;;;;;;;;;;17.60;41.92;101085.47;5077146;28;895;-62
2022/05/05 01:56:46;;;;;;;;;;;;;;;17.44;41.26;101075.53;5096296;28;718;-62
2022/05/05 01:59:11;;;;;;;;;;;;;;;17.32;40.76;101073.06;5088908;28;1019;-62
2022/05/05 02:01:37;;;;;;;;;;;;;;;17.25;40.13;101080.72;5089785;28;787;-62
2022/05/05 02:04:02;;;;;;;;;;;;;;;17.15;40.35;101080.69;5093579;28;871;-62
2022/05/05 02:06:28;;;;;;;;;;;;;;;17.05;40.16;101095.22;5076340;28;1898;-62
2022/05/05 02:08:53;;;;;;;;;;;;;;;17.13;40.84;101102.13;5077319;28;896;-62
2022/05/05 02:11:18;;;;;;;;;;;;;;;17.44;42.65;101105.78;5076792;28;892;-62
2022/05/05 02:13:44;;;;;;;;;;;;;;;17.81;44.35;101112.16;5077332;28;976;-62
2022/05/05 02:16:09;;;;;;;;;;;;;;;18.15;45.47;101104.22;5077606;28;731;-62
2022/05/05 02:18:35;;;;;;;;;;;;;;;18.40;45.93;101110.81;5076376;28;1352;-62
2022/05/05 02:21:00;;;;;;;;;;;;;;;18.64;46.54;101100.03;5077070;28;947;-62
2022/05/05 02:23:26;;;;;;;;;;;;;;;18.78;47.03;101097.50;5092949;28;845;-62
2022/05/05 02:25:53;;;;;;;;;;;;;;;18.72;46.92;101093.09;5095695;28;1963;-61
2022/05/05 02:28:18;;;;;;;;;;;;;;;18.42;46.43;101105.84;5096364;28;772;-61
2022/05/05 02:30:43;;;;;;;;;;;;;;;18.15;45.12;101104.22;5096528;28;882;-61
2022/05/05 02:33:09;;;;;;;;;;;;;;;17.91;43.59;101106.72;5081178;28;1040;-61
2022/05/05 02:35:34;;;;;;;;;;;;;;;17.62;42.15;101099.75;5084572;28;870;-62
2022/05/05 02:40:44;;;;;;;;;;;;;;;17.25;40.00;101097.19;5095878;28;822;-62
2022/05/05 02:43:09;;;;;;;;;;;;;;;17.13;39.49;101102.13;5096402;28;765;-62
2022/05/05 02:45:34;;;;;;;;;;;;;;;16.96;39.04;101100.41;5089072;28;911;-61
2022/05/05 02:48:00;;;;;;;;;;;;;;;16.99;39.23;101099.06;5095765;28;1909;-62
2022/05/05 02:50:26;;;;;;;;;;;;;;;17.23;41.30;101110.41;5082016;28;1044;-62
2022/05/05 02:52:52;;;;;;;;;;;;;;;17.52;43.61;101116.25;5076826;28;817;-62
2022/05/05 02:55:17;;;;;;;;;;;;;;;17.92;45.74;101122.09;5076420;28;878;-62
2022/05/05 02:57:43;;;;;;;;;;;;;;;18.17;46.39;101120.47;5076286;28;831;-61
2022/05/05 03:00:11;;;;;;;;;;;;;;;18.39;47.16;101112.72;5081877;28;1159;-62
2022/05/05 03:02:37;;;;;;;;;;;;;;;18.63;47.48;101120.41;5093925;28;827;-61
2022/05/05 03:05:02;;;;;;;;;;;;;;;18.96;47.60;101118.13;5082745;28;820;-62
2022/05/05 03:07:28;;;;;;;;;;;;;;;18.48;47.86;101126.75;5080277;28;1981;-61
2022/05/05 03:09:53;;;;;;;;;;;;;;;17.54;48.38;101129.72;5079841;28;958;-62
2022/05/05 03:12:19;;;;;;;;;;;;;;;17.74;45.83;101123.44;5080694;28;846;-61
2022/05/05 03:14:46;;;;;;;;;;;;;;;17.70;44.25;101134.16;5080529;28;985;-61
2022/05/05 03:17:12;;;;;;;;;;;;;;;17.63;43.04;101133.59;5080159;28;726;-61
2022/05/05 03:19:37;;;;;;;;;;;;;;;17.51;42.63;101146.78;5080860;28;902;-64
2022/05/05 03:22:03;;;;;;;;;;;;;;;17.44;42.31;101139.59;5080103;28;833;-64
2022/05/05 03:24:29;;;;;;;;;;;;;;;17.38;41.62;101132.44;5080242;28;869;-64
2022/05/05 03:26:54;;;;;;;;;;;;;;;17.34;41.49;101142.31;5080168;28;1902;-65
2022/05/05 03:29:20;;;;;;;;;;;;;;;17.24;41.38;101137.63;5080585;28;820;-65
2022/05/05 03:31:45;;;;;;;;;;;;;;;17.19;41.54;101145.00;5081159;28;1291;-63
2022/05/05 03:34:11;;;;;;;;;;;;;;;17.11;41.19;101135.38;5080382;28;1222;-60
2022/05/05 03:36:36;;;;;;;;;;;;;;;17.03;40.81;101135.88;5079872;28;854;-61
2022/05/05 03:39:02;;;;;;;;;;;;;;;17.11;41.72;101143.63;5079947;28;842;-63
2022/05/05 03:41:27;;;;;;;;;;;;;;;17.41;43.34;101142.88;5079852;28;759;-61
2022/05/05 03:43:53;;;;;;;;;;;;;;;17.96;46.24;101147.97;5080284;28;773;-60
2022/05/05 03:46:18;;;;;;;;;;;;;;;18.33;47.52;101143.28;5079823;28;1902;-60
2022/05/05 03:48:44;;;;;;;;;;;;;;;18.63;48.31;101150.69;5084055;28;826;-66
2022/05/05 03:51:10;;;;;;;;;;;;;;;18.54;47.53;101152.38;5085693;28;781;-64
2022/05/05 03:53:35;;;;;;;;;;;;;;;18.18;46.44;101160.66;5079478;28;754;-64
2022/05/05 03:56:00;;;;;;;;;;;;;;;17.88;44.79;101151.22;5091460;28;1020;-60
2022/05/05 03:58:26;;;;;;;;;;;;;;;17.61;42.90;101163.28;5096106;28;1050;-60
2022/05/05 04:00:51;;;;;;;;;;;;;;;17.40;41.48;101155.00;5079275;28;804;-59
2022/05/05 04:03:32;;;;;;;;;;;;;;;17.24;40.67;101165.09;5079528;28;866;-62
2022/05/05 04:05:58;;;;;;;;;;;;;;;17.06;39.95;101165.56;5079914;28;1909;-62
2022/05/05 04:08:24;;;;;;;;;;;;;;;16.96;39.88;101169.09;5079079;28;822;-60
2022/05/05 04:10:50;;;;;;;;;;;;;;;17.01;40.05;101176.53;5098435;28;893;-62
2022/05/05 04:13:15;;;;;;;;;;;;;;;17.12;41.52;101160.94;5098079;28;1045;-61
2022/05/05 04:15:41;;;;;;;;;;;;;;;17.25;42.45;101165.91;5079799;28;814;-61
2022/05/05 04:18:06;;;;;;;;;;;;;;;17.38;43.59;101170.09;5078934;28;822;-60
2022/05/05 04:20:33;;;;;;;;;;;;;;;17.47;43.85;101178.66;5090575;28;1095;-62
2022/05/05 04:22:58;;;;;;;;;;;;;;;17.58;44.26;101181.16;5096793;28;829;-63
2022/05/05 04:25:24;;;;;;;;;;;;;;;17.61;44.76;101190.78;5098083;28;757;-60
2022/05/05 04:27:49;;;;;;;;;;;;;;;17.77;45.75;101192.50;5078897;28;1897;-61
2022/05/05 04:30:16;;;;;;;;;;;;;;;18.02;46.37;101196.44;5078432;28;798;-60
2022/05/05 04:32:42;;;;;;;;;;;;;;;18.28;47.35;101200.00;5078432;28;986;-61
2022/05/05 04:35:07;;;;;;;;;;;;;;;18.53;47.75;101206.63;5087791;28;964;-61
2022/05/05 04:37:33;;;;;;;;;;;;;;;18.95;47.85;101215.69;5097067;28;910;-60
2022/05/05 04:39:58;;;;;;;;;;;;;;;18.70;48.59;101206.31;5086005;28;1091;-61
2022/05/05 04:42:25;;;;;;;;;;;;;;;17.55;49.61;101211.94;5078816;28;798;-61
2022/05/05 04:44:51;;;;;;;;;;;;;;;17.71;47.04;101215.59;5078187;28;1056;-61
2022/05/05 04:47:16;;;;;;;;;;;;;;;17.71;44.39;101215.59;5077888;28;1979;-61
2022/05/05 04:49:42;;;;;;;;;;;;;;;17.49;42.76;101223.19;5084558;28;819;-61
2022/05/05 04:52:07;;;;;;;;;;;;;;;17.34;41.74;101223.97;5085337;28;919;-62
2022/05/05 04:54:33;;;;;;;;;;;;;;;17.23;41.17;101226.66;5097249;28;1100;-60
2022/05/05 04:56:58;;;;;;;;;;;;;;;17.09;40.71;101217.22;5097708;28;834;-60
2022/05/05 04:59:23;;;;;;;;;;;;;;;17.03;40.17;101235.63;5088219;28;983;-60
2022/05/05 05:01:49;;;;;;;;;;;;;;;17.09;40.62;101237.28;5097117;28;870;-58
2022/05/05 05:04:14;;;;;;;;;;;;;;;17.22;41.67;101248.91;5092166;28;834;-65
2022/05/05 05:06:40;;;;;;;;;;;;;;;17.36;42.80;101232.75;5096827;28;1898;-64
2022/05/05 05:09:05;;;;;;;;;;;;;;;17.46;43.79;101249.31;5097035;28;826;-63
2022/05/05 05:11:31;;;;;;;;;;;;;;;17.52;44.19;101230.91;5097230;28;994;-70
2022/05/05 05:13:56;;;;;;;;;;;;;;;17.64;44.71;101239.75;5095945;28;1051;-65
2022/05/05 05:16:22;;;;;;;;;;;;;;;17.70;44.75;101246.13;5093055;28;967;-67
2022/05/05 05:18:47;;;;;;;;;;;;;;;17.73;45.17;101240.88;5077657;28;885;-66
2022/05/05 05:21:12;;;;;;;;;;;;;;;17.71;45.67;101239.50;5079850;28;1379;-64
2022/05/05 05:23:38;;;;;;;;;;;;;;;17.84;45.58;101249.16;5083198;28;830;-62
2022/05/05 05:26:03;;;;;;;;;;;;;;;17.90;45.83;101250.84;5077851;28;1910;-65
2022/05/05 05:28:29;;;;;;;;;;;;;;;17.97;45.95;101247.88;5077268;28;850;-67
2022/05/05 05:30:54;;;;;;;;;;;;;;;18.03;45.96;101244.84;5077343;28;729;-61
2022/05/05 05:33:20;;;;;;;;;;;;;;;18.06;46.05;101246.22;5085586;28;797;-61
2022/05/05 05:35:45;;;;;;;;;;;;;;;18.08;46.17;101244.84;5080843;28;1033;-60
2022/05/05 05:38:11;;;;;;;;;;;;;;;18.18;46.21;101249.56;5077346;28;985;-62
2022/05/05 05:40:37;;;;;;;;;;;;;;;18.18;46.54;101254.25;5077475;28;905;-61
2022/05/05 05:43:02;;;;;;;;;;;;;;;18.28;46.43;101262.50;5077274;28;840;-59
2022/05/05 05:45:28;;;;;;;;;;;;;;;18.22;46.58;101261.66;5077326;28;731;-59
2022/05/05 05:47:53;;;;;;;;;;;;;;;18.30;46.55;101266.66;5079627;28;2004;-62
2022/05/05 05:50:19;;;;;;;;;;;;;;;18.36;46.49;101261.97;5083342;28;1480;-64
2022/05/05 05:52:44;;;;;;;;;;;;;;;18.30;46.58;101272.16;5080907;28;1399;-64
2022/05/05 05:55:09;;;;;;;;;;;;;;;18.28;46.04;101273.50;5088488;28;1398;-64
2022/05/05 05:57:35;;;;;;;;;;;;;;;18.21;45.97;101270.22;5085298;28;1360;-66
2022/05/05 06:00:00;;;;;;;;;;;;;;;18.26;45.39;101275.72;5080003;28;1024;-65
2022/05/05 06:05:10;;;;;;;;;;;;;;;18.10;45.11;101275.69;5077867;28;834;-63
2022/05/05 06:07:36;;;;;;;;;;;;;;;18.12;45.11;101279.00;5076626;28;1981;-65
2022/05/05 06:10:02;;;;;;;;;;;;;;;18.08;44.82;101272.38;5079539;28;1355;-66
2022/05/05 06:12:27;;;;;;;;;;;;;;;18.08;44.66;101275.13;5083559;28;1209;-64
2022/05/05 06:14:53;;;;;;;;;;;;;;;18.06;44.69;101276.50;5077700;28;1144;-66
2022/05/05 06:17:18;;;;;;;;;;;;;;;18.02;44.64;101280.88;5095379;28;773;-65
2022/05/05 06:19:44;;;;;;;;;;;;;;;18.09;44.73;101287.81;5092563;28;890;-67
2022/05/05 06:22:09;;;;;;;;;;;;;;;18.11;44.46;101287.53;5089922;28;757;-68
2022/05/05 06:24:35;;;;;;;;;;;;;;;18.08;44.33;101285.31;5096138;28;726;-66
2022/05/05 06:27:00;;;;;;;;;;;;;;;18.07;44.48;101297.41;5093720;28;1913;-68
2022/05/05 06:29:26;;;;;;;;;;;;;;;18.05;44.14;101294.94;5081498;28;1404;-67
2022/05/05 06:31:52;;;;;;;;;;;;;;;18.01;44.16;101293.81;5081363;28;1128;-66
2022/05/05 06:34:17;;;;;;;;;;;;;;;18.03;44.11;101301.81;5085652;28;861;-67
2022/05/05 06:36:42;;;;;;;;;;;;;;;18.08;44.18;101299.09;5076266;28;868;-67
2022/05/05 06:39:08;;;;;;;;;;;;;;;18.10;44.18;101300.47;5075708;28;1091;-66
2022/05/05 06:41:35;;;;;;;;;;;;;;;18.04;44.53;101301.53;5079712;28;1230;-65
2022/05/05 06:44:00;;;;;;;;;;;;;;;18.12;44.31;101301.00;5080011;28;1230;-66
2022/05/05 06:46:27;;;;;;;;;;;;;;;18.08;44.25;101297.16;5075859;28;1898;-65
2022/05/05 06:48:53;;;;;;;;;;;;;;;18.05;44.36;101300.44;5077618;28;846;-66
2022/05/05 06:51:18;;;;;;;;;;;;;;;18.08;44.44;101299.91;5087771;28;1016;-66
2022/05/05 06:53:44;;;;;;;;;;;;;;;18.08;44.42;101305.41;5077111;28;1423;-66
2022/05/05 06:56:09;;;;;;;;;;;;;;;18.02;44.56;101303.75;5095959;28;769;-65
2022/05/05 06:58:35;;;;;;;;;;;;;;;18.02;44.27;101312.00;5084364;28;1015;-65
2022/05/05 07:03:44;;;;;;;;;;;;;;;17.98;44.18;101321.88;5077254;28;1257;-64
2022/05/05 07:06:12;;;;;;;;;;;;;;;18.01;44.26;101318.59;5081268;28;1905;-65
2022/05/05 07:11:22;;;;;;;;;;;;;;;17.99;44.11;101323.53;5093844;28;1388;-65
2022/05/05 07:13:47;;;;;;;;;;;;;;;18.03;43.94;101319.13;5078494;28;1384;-65
2022/05/05 07:16:13;;;;;;;;;;;;;;;18.04;44.26;101320.78;5084199;28;979;-67
2022/05/05 07:18:38;;;;;;;;;;;;;;;18.07;44.29;101317.50;5076139;28;878;-67
2022/05/05 07:21:04;;;;;;;;;;;;;;;18.05;44.40;101322.47;5088819;28;1154;-65
2022/05/05 07:23:29;;;;;;;;;;;;;;;18.17;44.41;101324.16;5081689;28;1079;-65
2022/05/05 07:25:54;;;;;;;;;;;;;;;18.15;43.90;101320.84;5078006;28;1909;-65
2022/05/05 07:28:20;;;;;;;;;;;;;;;18.08;43.83;101332.94;5075815;28;861;-67
2022/05/05 07:30:45;;;;;;;;;;;;;;;18.06;43.87;101321.38;5076059;28;879;-66
2022/05/05 07:33:11;;;;;;;;;;;;;;;18.03;43.74;101332.91;5076010;28;900;-67
2022/05/05 07:35:38;;;;;;;;;;;;;;;18.03;43.75;101330.16;5080759;28;1032;-67
2022/05/05 07:38:04;;;;;;;;;;;;;;;18.05;43.82;101338.16;5075175;28;982;-65
2022/05/05 07:40:29;;;;;;;;;;;;;;;17.99;43.75;101336.47;5082625;28;1288;-66
2022/05/05 07:42:55;;;;;;;;;;;;;;;18.01;43.50;101334.28;5080127;28;1162;-66
2022/05/05 07:45:21;;;;;;;;;;;;;;;18.03;43.88;101323.81;5083409;28;781;-69
2022/05/05 07:47:46;;;;;;;;;;;;;;;18.02;43.68;101320.25;5099441;28;1989;-67
2022/05/05 07:50:12;;;;;;;;;;;;;;;18.01;43.69;101321.34;5086924;28;1043;-70
2022/05/05 07:52:37;;;;;;;;;;;;;;;17.98;43.69;101330.16;5079306;28;787;-68
2022/05/05 07:55:03;;;;;;;;;;;;;;;17.97;43.44;101319.41;5078700;28;1479;-68
2022/05/05 07:57:28;;;;;;;;;;;;;;;17.93;43.68;101324.63;5078744;28;925;-67
2022/05/05 07:59:54;;;;;;;;;;;;;;;18.00;43.61;101327.94;5078786;28;789;-68
2022/05/05 08:02:19;;;;;;;;;;;;;;;17.97;43.46;101330.41;5083826;28;1296;-67
2022/05/05 08:04:45;;;;;;;;;;;;;;;17.97;43.38;101314.72;5083445;28;955;-67
2022/05/05 08:07:11;;;;;;;;;;;;;;;17.94;43.16;101323.53;5079542;28;1981;-68
2022/05/05 08:09:36;;;;;;;;;;;;;;;17.88;43.41;101330.06;5087585;28;865;-68
2022/05/05 08:12:02;;;;;;;;;;;;;;;17.88;43.12;101324.56;5098805;28;781;-68
2022/05/05 08:14:28;;;;;;;;;;;;;;;17.91;43.34;101329.56;5091030;28;1128;-67
2022/05/05 08:16:53;;;;;;;;;;;;;;;17.94;43.20;101323.53;5088954;28;945;-68
2022/05/05 08:19:20;;;;;;;;;;;;;;;17.93;43.40;101322.69;5090054;28;854;-68
2022/05/05 08:21:46;;;;;;;;;;;;;;;17.99;43.37;101329.03;5081560;28;1144;-67
2022/05/05 08:29:39;;;;;;;;;;;;;;;18.01;43.69;101313.09;5085852;28;1151;-67
2022/05/05 08:32:05;;;;;;;;;;;;;;;18.01;43.79;101324.09;5078572;28;825;-67
2022/05/05 08:34:30;;;;;;;;;;;;;;;18.00;43.62;101316.13;5079950;28;878;-68
2022/05/05 08:36:56;;;;;;;;;;;;;;;17.94;43.64;101316.09;5078370;28;902;-64
2022/05/05 08:39:21;;;;;;;;;;;;;;;17.87;43.28;101315.47;5078469;28;906;-64
2022/05/05 08:41:47;;;;;;;;;;;;;;;17.79;43.47;101319.59;5078330;28;1472;-67
2022/05/05 08:44:12;;;;;;;;;;;;;;;17.88;43.07;101316.28;5088333;28;1324;-70
2022/05/05 08:46:38;;;;;;;;;;;;;;;17.87;42.97;101325.66;5086971;28;1906;-70
2022/05/05 08:49:04;;;;;;;;;;;;;;;17.78;42.93;101337.19;5081787;28;1068;-71
2022/05/05 08:51:50;;;;;;;;;;;;;;;17.75;42.91;101312.97;5080854;28;1400;-69
2022/05/05 08:54:19;;;;;;;;;;;;;;;17.76;42.82;101331.09;5083482;28;1475;-70
2022/05/05 08:56:50;;;;;;;;;;;;;;;17.73;42.87;101330.84;5082557;28;1491;-70
2022/05/05 08:59:16;;;;;;;;;;;;;;;17.78;42.75;101322.59;5084095;28;988;-68
2022/05/05 09:01:41;;;;;;;;;;;;;;;17.71;42.61;101327.50;5097142;28;738;-68
2022/05/05 09:04:07;;;;;;;;;;;;;;;17.76;42.53;101338.53;5096439;28;1468;-68
2022/05/05 09:06:46;;;;;;;;;;;;;;;17.70;42.90;101326.69;5081145;28;1987;-69
2022/05/05 09:09:30;;;;;;;;;;;;;;;17.69;42.82;101322.28;5079718;28;1267;-68
2022/05/05 09:12:14;;;;;;;;;;;;;;;17.63;43.14;101334.38;5079066;28;1499;-67
2022/05/05 09:14:50;;;;;;;;;;;;;;;17.69;42.63;101325.03;5092886;28;1256;-68
2022/05/05 09:17:16;;;;;;;;;;;;;;;17.69;42.63;101351.72;5093866;28;1391;-64
2022/05/05 09:19:46;;;;;;;;;;;;;;;17.85;42.12;101341.59;5083439;28;848;-63
2022/05/05 09:22:12;;;;;;;;;;;;;;;17.88;42.13;101319.06;5077437;28;826;-64
2022/05/05 09:24:49;;;;;;;;;;;;;;;17.92;42.20;101334.81;5080652;28;1234;-67
2022/05/05 09:27:31;;;;;;;;;;;;;;;17.94;41.83;101354.59;5096652;28;1963;-67
2022/05/05 09:30:02;;;;;;;;;;;;;;;17.93;41.79;101335.63;5095201;28;1079;-66
2022/05/05 09:32:38;;;;;;;;;;;;;;;18.00;41.80;101330.69;5087822;28;911;-66
2022/05/05 09:35:06;;;;;;;;;;;;;;;18.03;41.94;101323.81;5079462;28;1404;-66
2022/05/05 09:37:31;;;;;;;;;;;;;;;18.03;42.13;101343.91;5075496;28;894;-63
2022/05/05 09:39:59;;;;;;;;;;;;;;;17.98;42.33;101321.03;5077035;28;801;-65
2022/05/05 09:42:37;;;;;;;;;;;;;;;17.94;42.52;101332.59;5076728;28;865;-66
2022/05/05 09:45:18;;;;;;;;;;;;;;;17.93;42.57;101324.63;5079155;28;817;-66
2022/05/05 09:47:46;;;;;;;;;;;;;;;17.88;42.72;101327.31;5095708;28;1997;-66
2022/05/05 09:50:15;;;;;;;;;;;;;;;17.93;42.80;101335.63;5093163;28;890;-66
2022/05/05 09:58:12;;;;;;;;;;;;;;;17.87;43.10;101332.00;5076097;28;861;-64
2022/05/05 10:00:58;;;;;;;;;;;;;;;17.88;42.79;101332.81;5080898;28;1171;-65
2022/05/05 10:06:21;;;;;;;;;;;;;;;17.92;42.86;101337.56;5083399;28;1918;-70
2022/05/05 10:08:47;;;;;;;;;;;;;;;17.90;43.00;101330.63;5076568;28;829;-69
2022/05/05 10:11:14;;;;;;;;;;;;;;;17.97;43.21;101328.47;5089236;28;1090;-68
2022/05/05 10:13:40;;;;;;;;;;;;;;;17.96;43.16;101329.56;5080640;28;1315;-67
2022/05/05 10:16:05;;;;;;;;;;;;;;;18.00;43.43;101333.44;5088744;28;913;-65
2022/05/05 10:18:38;;;;;;;;;;;;;;;18.00;43.20;101332.63;5092036;28;1126;-68
2022/05/05 10:21:06;;;;;;;;;;;;;;;17.99;43.50;101341.97;5076660;28;841;-64
2022/05/05 10:23:37;;;;;;;;;;;;;;;17.98;43.62;101335.66;5089637;28;786;-63
2022/05/05 10:26:02;;;;;;;;;;;;;;;18.03;43.71;101332.06;5075247;28;1976;-69
2022/05/05 10:28:41;;;;;;;;;;;;;;;17.99;43.44;101336.47;5086091;28;1163;-68
2022/05/05 10:31:25;;;;;;;;;;;;;;;18.01;43.40;101331.53;5077381;28;1380;-69
2022/05/05 10:33:57;;;;;;;;;;;;;;;17.97;43.64;101330.41;5080244;28;961;-69
2022/05/05 10:36:23;;;;;;;;;;;;;;;17.97;43.44;101330.41;5080743;28;835;-67
2022/05/05 10:38:49;;;;;;;;;;;;;;;18.01;43.57;101343.34;5082712;28;1100;-67
2022/05/05 10:41:44;;;;;;;;;;;;;;;18.03;43.32;101335.66;5075396;28;1474;-67
2022/05/05 10:44:22;;;;;;;;;;;;;;;18.03;43.39;101334.84;5068575;28;1222;-65
2022/05/05 10:46:51;;;;;;;;;;;;;;;18.01;43.20;101348.88;5081696;28;1913;-65
2022/05/05 10:49:36;;;;;;;;;;;;;;;17.88;43.26;101350.16;5079824;28;1007;-66
2022/05/05 10:52:10;;;;;;;;;;;;;;;17.85;43.05;101356.22;5078923;28;1120;-65
2022/05/05 10:54:36;;;;;;;;;;;;;;;17.79;43.20;101352.59;5082860;28;1174;-67
2022/05/05 10:57:20;;;;;;;;;;;;;;;17.83;42.81;101352.06;5077965;28;985;-65
2022/05/05 11:00:05;;;;;;;;;;;;;;;17.80;42.66;101353.41;5080356;28;1153;-67
2022/05/05 11:02:30;;;;;;;;;;;;;;;17.78;42.84;101355.59;5081317;28;1126;-68
2022/05/05 11:05:14;;;;;;;;;;;;;;;17.77;42.74;101360.28;5077962;28;1241;-67
2022/05/05 11:07:40;;;;;;;;;;;;;;;17.70;42.61;101354.19;5078942;28;1991;-65
2022/05/05 11:10:06;;;;;;;;;;;;;;;17.74;42.81;101355.31;5078180;28;1337;-63
2022/05/05 11:12:32;;;;;;;;;;;;;;;17.70;42.54;101365.19;5080471;28;1237;-63
2022/05/05 11:23:24;;;;;;;;;;;;;;;17.71;42.50;101372.38;5086006;28;1179;-61
2022/05/05 11:25:50;;;;;;;;;;;;;;;17.68;42.42;101372.88;5078519;28;875;-63
2022/05/05 11:28:17;;;;;;;;;;;;;;;17.67;42.52;101371.25;5083465;28;1909;-64
2022/05/05 11:30:43;;;;;;;;;;;;;;;17.64;42.65;101371.75;5097869;28;1217;-66
2022/05/05 11:33:09;;;;;;;;;;;;;;;17.64;42.53;101380.00;5082598;28;1317;-64
2022/05/05 11:35:35;;;;;;;;;;;;;;;17.60;42.80;101387.16;5088149;28;855;-67
2022/05/05 11:38:00;;;;;;;;;;;;;;;17.63;42.64;101381.13;5083534;28;842;-66
2022/05/05 11:40:26;;;;;;;;;;;;;;;17.57;42.42;101383.00;5077935;28;849;-65
2022/05/05 11:45:35;;;;;;;;;;;;;;;17.62;42.34;101377.50;5079504;28;923;-67
2022/05/05 11:48:14;;;;;;;;;;;;;;;17.58;42.51;101378.31;5079686;28;2283;-66
2022/05/05 11:50:45;;;;;;;;;;;;;;;17.58;42.35;101384.63;5080781;28;1209;-65
2022/05/05 11:53:17;;;;;;;;;;;;;;;17.56;42.59;101386.03;5081903;28;1047;-64
2022/05/05 11:55:45;;;;;;;;;;;;;;;17.58;42.62;101389.31;5079242;28;1000;-62
2022/05/05 11:58:15;;;;;;;;;;;;;;;17.61;42.65;101380.53;5085985;28;1066;-64
2022/05/05 12:03:25;;;;;;;;;;;;;;;17.60;42.47;101384.41;5098288;28;903;-64
2022/05/05 12:05:53;;;;;;;;;;;;;;;17.60;42.53;101387.16;5078569;28;1016;-66
2022/05/05 12:08:19;;;;;;;;;;;;;;;17.56;42.70;101375.03;5085708;28;1914;-63
2022/05/05 12:10:44;;;;;;;;;;;;;;;17.61;42.62;101377.78;5090414;28;1368;-64
2022/05/05 12:13:11;;;;;;;;;;;;;;;17.57;42.44;101379.41;5084240;28;1141;-65
2022/05/05 12:15:37;;;;;;;;;;;;;;;17.54;42.53;101385.44;5080739;28;965;-67
2022/05/05 12:18:03;;;;;;;;;;;;;;;17.54;42.74;101391.75;5082764;28;1309;-66
2022/05/05 12:20:28;;;;;;;;;;;;;;;17.53;42.72;101398.38;5082749;28;1335;-66
2022/05/05 12:22:55;;;;;;;;;;;;;;;17.52;42.47;101390.41;5093794;28;1004;-64
2022/05/05 12:25:20;;;;;;;;;;;;;;;17.51;42.37;101400.56;5078375;28;825;-66
2022/05/05 12:27:46;;;;;;;;;;;;;;;17.47;42.48;101404.09;5083509;28;1967;-65
2022/05/05 12:30:12;;;;;;;;;;;;;;;17.43;42.51;101399.13;5079152;28;1038;-66
2022/05/05 12:32:53;;;;;;;;;;;;;;;17.47;42.36;101393.91;5083988;28;1396;-64
2022/05/05 12:35:27;;;;;;;;;;;;;;;17.41;42.52;101390.31;5083653;28;910;-64
2022/05/05 12:37:59;;;;;;;;;;;;;;;17.49;42.42;101385.41;5093031;28;833;-62
2022/05/05 12:40:25;;;;;;;;;;;;;;;17.42;42.33;101397.47;5095017;28;1162;-66
2022/05/05 12:42:51;;;;;;;;;;;;;;;17.43;42.59;101388.13;5091688;28;919;-67
2022/05/05 12:45:24;;;;;;;;;;;;;;;17.45;42.49;101391.44;5077135;28;1172;-69
2022/05/05 12:47:50;;;;;;;;;;;;;;;17.43;42.46;101396.38;5078387;28;1968;-64
2022/05/05 12:50:27;;;;;;;;;;;;;;;17.40;42.34;101399.66;5078429;28;921;-67
2022/05/05 13:01:05;;;;;;;;;;;;;;;17.47;42.54;101399.41;5094668;28;1282;-64
2022/05/05 13:03:31;;;;;;;;;;;;;;;17.52;43.05;101398.66;5098080;28;790;-65
2022/05/05 13:05:57;;;;;;;;;;;;;;;17.53;43.52;101403.03;5081721;28;1040;-65
2022/05/05 13:08:23;;;;;;;;;;;;;;;17.55;43.54;101400.84;5077813;28;1906;-65
2022/05/05 13:10:48;;;;;;;;;;;;;;;17.62;43.63;101404.19;5083252;28;1408;-63
2022/05/05 13:13:14;;;;;;;;;;;;;;;17.68;43.72;101394.88;5086184;28;1601;-66
2022/05/05 13:15:40;;;;;;;;;;;;;;;17.75;43.79;101405.66;5079630;28;1357;-67
2022/05/05 13:18:06;;;;;;;;;;;;;;;17.71;44.28;101399.88;5075391;28;1528;-63
2022/05/05 13:20:32;;;;;;;;;;;;;;;17.72;44.29;101401.50;5077915;28;1256;-63
2022/05/05 13:22:59;;;;;;;;;;;;;;;17.73;44.17;101405.91;5078051;28;1293;-62
2022/05/05 13:25:25;;;;;;;;;;;;;;;17.77;44.28;101409.78;5080009;28;1404;-62
2022/05/05 13:27:50;;;;;;;;;;;;;;;17.83;44.35;101415.34;5079492;28;1914;-62
2022/05/05 13:30:16;;;;;;;;;;;;;;;17.84;44.27;101419.72;5078614;28;1218;-62
2022/05/05 13:32:41;;;;;;;;;;;;;;;17.85;44.32;101413.97;5078467;28;1089;-61
2022/05/05 13:35:07;;;;;;;;;;;;;;;17.86;44.31;101412.03;5077924;28;1114;-64
2022/05/05 13:37:32;;;;;;;;;;;;;;;17.89;44.53;101420.59;5077440;28;902;-63
2022/05/05 13:39:57;;;;;;;;;;;;;;;17.90;44.71;101416.75;5076158;28;1272;-64
2022/05/05 13:42:23;;;;;;;;;;;;;;;17.93;44.46;101413.47;5081248;28;1619;-63
2022/05/05 13:44:49;;;;;;;;;;;;;;;17.97;44.65;101418.47;5078271;28;1084;-60
2022/05/05 13:47:16;;;;;;;;;;;;;;;18.03;44.41;101423.72;5084081;28;1913;-63
2022/05/05 13:49:42;;;;;;;;;;;;;;;18.04;44.78;101424.56;5081429;28;1268;-66